Time;durP1;ratioP1;P1;durP2;ratioP2;P2;SDS_P1;SDS_P2;PMS_P1;PMS_P2;Temp;Humidity;BMP_temperature;BMP_pressure;BME280_temperature;BME280_humidity;BME280_pressure;Samples;Min_cycle;Max_cycle;Signal;HPM_P1;HPM_P2
2023/01/13 00:00:56;;;;;;;3.90;1.27;;;10.40;99.90;;;;;;5112304;28;20285;-81
2023/01/13 00:03:22;;;;;;;2.55;1.40;;;10.30;99.90;;;;;;5111909;28;20273;-81
2023/01/13 00:05:51;;;;;;;2.58;1.60;;;10.30;99.90;;;;;;5107022;28;20205;-80
2023/01/13 00:08:18;;;;;;;6.05;1.60;;;10.20;99.90;;;;;;5110452;28;20188;-81
2023/01/13 00:10:47;;;;;;;4.03;1.88;;;10.20;99.90;;;;;;5102022;28;20266;-81
2023/01/13 00:13:14;;;;;;;2.35;1.20;;;10.20;99.90;;;;;;5108304;28;20920;-79
2023/01/13 00:15:41;;;;;;;2.65;1.40;;;10.20;99.90;;;;;;5100627;28;20225;-80
2023/01/13 00:18:08;;;;;;;2.45;1.67;;;10.20;99.90;;;;;;5093633;28;20209;-81
2023/01/13 00:20:35;;;;;;;4.70;1.55;;;10.20;99.90;;;;;;5100502;28;20213;-80
2023/01/13 00:23:03;;;;;;;7.15;1.83;;;10.20;99.90;;;;;;5097421;28;20208;-81
2023/01/13 00:25:30;;;;;;;9.35;1.52;;;10.20;99.90;;;;;;5091199;28;20221;-81
2023/01/13 00:27:57;;;;;;;2.42;1.30;;;10.20;99.90;;;;;;5097230;28;20222;-81
2023/01/13 00:30:23;;;;;;;4.10;1.30;;;10.20;99.90;;;;;;5090249;28;20299;-80
2023/01/13 00:32:50;;;;;;;2.75;1.33;;;10.20;99.90;;;;;;5093850;28;20264;-81
2023/01/13 00:35:17;;;;;;;5.47;1.70;;;10.20;99.90;;;;;;5092696;28;20227;-81
2023/01/13 00:37:44;;;;;;;8.10;1.70;;;10.20;99.90;;;;;;5091951;28;20204;-81
2023/01/13 00:40:13;;;;;;;8.80;1.90;;;10.20;99.90;;;;;;5089798;28;20204;-80
2023/01/13 00:45:24;;;;;;;4.10;2.15;;;10.30;99.90;;;;;;5086180;28;20236;-80
2023/01/13 00:47:51;;;;;;;4.43;1.88;;;10.20;99.90;;;;;;5098229;28;20276;-81
2023/01/13 00:50:17;;;;;;;3.38;1.40;;;10.30;99.90;;;;;;5093747;28;20214;-82
2023/01/13 00:52:44;;;;;;;8.40;2.58;;;10.30;99.90;;;;;;5101469;28;20226;-82
2023/01/13 00:55:12;;;;;;;3.70;1.90;;;10.30;99.90;;;;;;5094279;28;20286;-80
2023/01/13 00:57:39;;;;;;;1.75;1.30;;;10.30;99.90;;;;;;5106153;28;20208;-81
2023/01/13 01:00:07;;;;;;;3.17;1.35;;;10.30;99.90;;;;;;5101208;28;20204;-81
2023/01/13 01:02:34;;;;;;;4.18;1.70;;;10.20;99.90;;;;;;5101391;28;20232;-82
2023/01/13 01:05:01;;;;;;;11.93;2.35;;;10.20;99.90;;;;;;5100236;28;20648;-82
2023/01/13 01:07:28;;;;;;;5.63;1.95;;;10.20;99.90;;;;;;5094292;28;20575;-81
2023/01/13 01:09:54;;;;;;;8.23;2.78;;;10.20;99.90;;;;;;5096984;28;20209;-82
2023/01/13 01:12:23;;;;;;;5.40;1.80;;;10.10;99.90;;;;;;5096972;28;20209;-80
2023/01/13 01:14:49;;;;;;;10.77;1.65;;;10.10;99.90;;;;;;5086862;28;20306;-81
2023/01/13 01:17:16;;;;;;;4.97;2.10;;;10.00;99.90;;;;;;5081285;28;20232;-81
2023/01/13 01:19:43;;;;;;;7.00;2.45;;;10.00;99.90;;;;;;5089611;28;20243;-81
2023/01/13 01:22:10;;;;;;;7.38;2.45;;;9.90;99.90;;;;;;5085593;28;20219;-81
2023/01/13 01:24:37;;;;;;;14.77;2.33;;;9.90;99.90;;;;;;5097494;28;20223;-80
2023/01/13 01:27:04;;;;;;;7.53;2.83;;;9.90;99.90;;;;;;5096260;28;20655;-81
2023/01/13 01:29:32;;;;;;;5.47;1.65;;;9.90;99.90;;;;;;5110288;28;20223;-81
2023/01/13 01:31:59;;;;;;;6.10;2.50;;;9.80;99.90;;;;;;5103679;28;20231;-80
2023/01/13 01:34:26;;;;;;;6.22;1.70;;;9.80;99.90;;;;;;5102392;28;20219;-81
2023/01/13 01:36:52;;;;;;;12.23;2.80;;;9.70;99.90;;;;;;5091899;28;20362;-80
2023/01/13 01:39:19;;;;;;;10.90;2.42;;;9.70;99.90;;;;;;5100957;28;20225;-81
2023/01/13 01:44:58;;;;;;;8.70;2.60;;;9.70;99.90;;;;;;5100782;28;20224;-80
2023/01/13 01:47:26;;;;;;;9.30;2.50;;;9.60;99.90;;;;;;5098232;28;20208;-81
2023/01/13 01:49:54;;;;;;;6.60;2.20;;;9.50;99.90;;;;;;5097883;28;20216;-82
2023/01/13 01:52:26;;;;;;;11.43;2.35;;;9.50;99.90;;;;;;5094987;28;20270;-81
2023/01/13 01:54:56;;;;;;;12.88;3.58;;;9.50;99.90;;;;;;5101674;28;20214;-81
2023/01/13 01:57:27;;;;;;;11.57;2.33;;;9.50;99.90;;;;;;5095124;28;20230;-80
2023/01/13 01:59:57;;;;;;;5.53;1.83;;;9.60;99.90;;;;;;5090927;28;20293;-81
2023/01/13 02:02:24;;;;;;;17.83;2.20;;;9.40;99.90;;;;;;5097738;28;20198;-82
2023/01/13 02:04:54;;;;;;;6.75;3.25;;;9.40;99.90;;;;;;5082785;28;20224;-81
2023/01/13 02:07:25;;;;;;;9.80;4.30;;;9.40;99.90;;;;;;5095256;28;20203;-80
2023/01/13 02:09:53;;;;;;;10.43;2.55;;;9.40;99.90;;;;;;5101017;28;20294;-79
2023/01/13 02:12:30;;;;;;;9.73;2.50;;;9.40;99.90;;;;;;5099947;28;20202;-80
2023/01/13 02:15:01;;;;;;;19.70;3.22;;;9.30;99.90;;;;;;5090296;28;20302;-81
2023/01/13 02:17:45;;;;;;;14.02;2.50;;;9.30;99.90;;;;;;5082184;28;20219;-81
2023/01/13 02:20:47;;;;;;;17.33;3.47;;;9.30;99.90;;;;;;5084210;28;20195;-80
2023/01/13 02:27:27;;;;;;;20.25;3.42;;;9.20;99.90;;;;;;5086086;28;20287;-80
2023/01/13 02:33:15;;;;;;;8.85;2.60;;;9.10;99.90;;;;;;5084997;28;20213;-81
2023/01/13 02:35:50;;;;;;;11.90;2.85;;;9.10;99.90;;;;;;5087813;28;20309;-81
2023/01/13 02:38:21;;;;;;;12.25;3.47;;;9.10;99.90;;;;;;5083083;28;20204;-80
2023/01/13 02:40:55;;;;;;;11.32;2.45;;;9.10;99.90;;;;;;5087137;28;20579;-80
2023/01/13 02:46:20;;;;;;;19.17;3.10;;;9.00;99.90;;;;;;5081938;28;20248;-80
2023/01/13 02:48:50;;;;;;;10.95;2.58;;;9.00;99.90;;;;;;5105096;28;20210;-80
2023/01/13 02:51:21;;;;;;;11.82;3.03;;;9.00;99.90;;;;;;5103261;28;20247;-81
2023/01/13 02:53:53;;;;;;;19.17;4.50;;;9.00;99.90;;;;;;5114383;28;20242;-80
2023/01/13 02:56:22;;;;;;;12.93;2.28;;;9.00;99.90;;;;;;5105931;28;20206;-80
2023/01/13 02:58:50;;;;;;;16.45;3.72;;;9.00;99.90;;;;;;5101144;28;20201;-80
2023/01/13 03:01:18;;;;;;;15.68;3.28;;;9.10;99.90;;;;;;5100988;28;20227;-80
2023/01/13 03:03:45;;;;;;;15.25;3.03;;;9.10;99.90;;;;;;5101056;28;20288;-79
2023/01/13 03:06:32;;;;;;;8.75;2.97;;;9.10;99.90;;;;;;5089403;28;20201;-81
2023/01/13 03:09:06;;;;;;;17.75;4.38;;;9.10;99.90;;;;;;5105705;28;20202;-80
2023/01/13 03:11:39;;;;;;;10.18;2.90;;;9.10;99.90;;;;;;5096636;28;20202;-81
2023/01/13 03:14:21;;;;;;;8.00;3.42;;;9.10;99.90;;;;;;5094372;28;20236;-81
2023/01/13 03:17:04;;;;;;;7.95;2.90;;;9.10;99.90;;;;;;5095711;28;20214;-79
2023/01/13 03:19:42;;;;;;;27.88;4.07;;;9.10;99.90;;;;;;5085284;28;20285;-79
2023/01/13 03:22:18;;;;;;;21.92;4.00;;;9.00;99.90;;;;;;5092470;28;20244;-80
2023/01/13 03:24:50;;;;;;;12.32;3.45;;;9.00;99.90;;;;;;5096969;28;20227;-80
2023/01/13 03:27:24;;;;;;;15.38;4.30;;;9.00;99.90;;;;;;5096197;28;20708;-80
2023/01/13 03:29:56;;;;;;;14.48;4.20;;;9.00;99.90;;;;;;5094558;28;20202;-80
2023/01/13 03:32:28;;;;;;;13.27;3.95;;;9.00;99.90;;;;;;5088802;28;20289;-80
2023/01/13 03:34:59;;;;;;;20.75;5.75;;;9.00;99.90;;;;;;5100955;28;20282;-79
2023/01/13 03:37:30;;;;;;;22.00;4.85;;;9.00;99.90;;;;;;5089969;28;20227;-79
2023/01/13 03:40:02;;;;;;;16.52;3.75;;;8.90;99.90;;;;;;5098420;28;20226;-80
2023/01/13 03:42:32;;;;;;;12.38;3.35;;;8.90;99.90;;;;;;5096021;28;20198;-80
2023/01/13 03:45:03;;;;;;;6.82;2.95;;;8.90;99.90;;;;;;5099755;28;20288;-80
2023/01/13 03:47:36;;;;;;;14.13;3.72;;;8.90;99.90;;;;;;5089156;28;20195;-81
2023/01/13 03:50:06;;;;;;;15.43;3.95;;;8.90;99.90;;;;;;5099019;28;20678;-80
2023/01/13 03:52:36;;;;;;;15.75;4.63;;;8.80;99.90;;;;;;5096144;28;20203;-80
2023/01/13 03:55:08;;;;;;;21.90;3.90;;;8.80;99.90;;;;;;5101667;28;20226;-80
2023/01/13 03:57:39;;;;;;;11.45;4.05;;;8.80;99.90;;;;;;5093861;28;20245;-80
2023/01/13 04:00:10;;;;;;;11.98;3.55;;;8.80;99.90;;;;;;5089112;28;20266;-80
2023/01/13 04:02:47;;;;;;;17.48;5.28;;;8.70;99.90;;;;;;5094868;28;20199;-79
2023/01/13 04:05:15;;;;;;;20.65;4.03;;;8.70;99.90;;;;;;5101063;28;20278;-80
2023/01/13 04:07:51;;;;;;;14.05;4.13;;;8.70;99.90;;;;;;5102667;28;20198;-79
2023/01/13 04:10:23;;;;;;;20.48;4.15;;;8.70;99.90;;;;;;5087674;28;20201;-80
2023/01/13 04:13:03;;;;;;;24.65;4.55;;;8.70;99.90;;;;;;5101200;28;20611;-81
2023/01/13 04:15:34;;;;;;;22.65;4.78;;;8.70;99.90;;;;;;5087027;28;20230;-80
2023/01/13 04:18:17;;;;;;;14.48;3.40;;;8.70;99.90;;;;;;5095303;28;20241;-79
2023/01/13 04:20:45;;;;;;;9.45;3.67;;;8.80;99.90;;;;;;5099866;28;20297;-79
2023/01/13 04:23:12;;;;;;;16.80;4.60;;;8.90;99.90;;;;;;5099319;28;20236;-79
2023/01/13 04:25:39;;;;;;;22.10;4.32;;;8.90;99.90;;;;;;5101723;28;20226;-79
2023/01/13 04:28:06;;;;;;;16.63;4.43;;;8.90;99.90;;;;;;5101379;28;20221;-79
2023/01/13 04:30:33;;;;;;;21.85;5.10;;;8.80;99.90;;;;;;5097082;28;20210;-79
2023/01/13 04:33:00;;;;;;;11.35;3.33;;;8.90;99.90;;;;;;5102422;28;20229;-79
2023/01/13 04:35:28;;;;;;;24.40;6.60;;;8.90;99.90;;;;;;5094063;28;20237;-79
2023/01/13 04:37:55;;;;;;;13.63;3.78;;;8.90;99.90;;;;;;5099632;28;20230;-79
2023/01/13 04:40:21;;;;;;;28.15;6.45;;;8.90;99.90;;;;;;5100779;28;20257;-81
2023/01/13 04:42:48;;;;;;;13.32;3.50;;;9.00;99.90;;;;;;5092739;28;20274;-79
2023/01/13 04:45:15;;;;;;;13.13;4.05;;;8.90;99.90;;;;;;5108702;28;20248;-79
2023/01/13 04:47:42;;;;;;;21.38;3.42;;;8.90;99.90;;;;;;5107126;28;20282;-80
2023/01/13 04:50:11;;;;;;;18.90;6.35;;;8.90;99.90;;;;;;5101116;28;20294;-80
2023/01/13 04:52:39;;;;;;;17.42;5.35;;;8.90;99.90;;;;;;5093804;28;20271;-79
2023/01/13 04:55:07;;;;;;;27.92;5.68;;;8.90;99.90;;;;;;5086747;28;20317;-80
2023/01/13 04:57:36;;;;;;;20.67;5.03;;;9.00;99.90;;;;;;5096100;28;20222;-80
2023/01/13 05:00:04;;;;;;;18.42;4.88;;;8.90;99.90;;;;;;5100559;28;20198;-80
2023/01/13 05:02:31;;;;;;;19.15;4.85;;;8.90;99.90;;;;;;5091264;28;20274;-79
2023/01/13 05:04:58;;;;;;;21.90;5.03;;;8.90;99.90;;;;;;5101968;28;20321;-79
2023/01/13 05:07:25;;;;;;;25.50;4.88;;;8.90;99.90;;;;;;5099533;28;20281;-79
2023/01/13 05:09:53;;;;;;;13.75;4.35;;;8.80;99.90;;;;;;5089423;28;20900;-81
2023/01/13 05:17:50;;;;;;;12.07;4.30;;;8.70;99.90;;;;;;5105235;28;20247;-80
2023/01/13 05:20:18;;;;;;;13.73;4.50;;;8.80;99.90;;;;;;5103846;28;20222;-80
2023/01/13 05:25:43;;;;;;;18.23;5.80;;;8.80;99.90;;;;;;5042117;28;20279;-81
2023/01/13 05:28:10;;;;;;;19.13;5.20;;;8.80;99.90;;;;;;5077273;28;20609;-83
2023/01/13 05:30:41;;;;;;;18.85;4.55;;;8.80;99.90;;;;;;5085771;28;20251;-80
2023/01/13 05:33:08;;;;;;;19.52;6.30;;;8.80;99.90;;;;;;5109614;28;20189;-80
2023/01/13 05:35:35;;;;;;;20.33;4.90;;;8.70;99.90;;;;;;5116621;28;20269;-80
2023/01/13 05:38:01;;;;;;;10.98;5.45;;;8.80;99.90;;;;;;5105598;28;20266;-80
2023/01/13 05:43:23;;;;;;;16.92;4.47;;;8.90;99.90;;;;;;5087718;28;20229;-80
2023/01/13 05:45:52;;;;;;;18.95;4.78;;;8.90;99.90;;;;;;5092126;28;20236;-81
2023/01/13 05:48:21;;;;;;;21.73;5.57;;;8.90;99.90;;;;;;5103107;28;20262;-80
2023/01/13 05:50:49;;;;;;;12.63;4.38;;;8.90;99.90;;;;;;5097065;28;20658;-80
2023/01/13 05:53:17;;;;;;;16.90;4.95;;;8.90;99.90;;;;;;5090920;28;20205;-81
2023/01/13 05:55:45;;;;;;;21.40;4.68;;;8.90;99.90;;;;;;5084370;28;20227;-80
2023/01/13 05:58:14;;;;;;;28.90;5.53;;;8.90;99.90;;;;;;5099563;28;20282;-80
2023/01/13 06:00:41;;;;;;;9.40;3.30;;;9.00;99.90;;;;;;5086995;28;20261;-80
2023/01/13 06:03:08;;;;;;;22.17;5.03;;;9.00;99.90;;;;;;5093590;28;20718;-80
2023/01/13 06:05:35;;;;;;;23.15;5.32;;;9.00;99.90;;;;;;5086265;28;20230;-80
2023/01/13 06:08:04;;;;;;;21.65;5.30;;;9.00;99.90;;;;;;5100506;28;20211;-80
2023/01/13 06:10:31;;;;;;;23.23;6.30;;;9.10;99.90;;;;;;5099129;28;20202;-80
2023/01/13 06:12:58;;;;;;;20.73;5.65;;;9.10;99.90;;;;;;5085089;28;20263;-80
2023/01/13 06:15:26;;;;;;;20.95;5.07;;;9.20;99.90;;;;;;5083560;28;20607;-81
2023/01/13 06:17:53;;;;;;;19.77;4.72;;;9.20;99.90;;;;;;5085039;28;20280;-81
2023/01/13 06:20:20;;;;;;;14.60;5.75;;;9.20;99.90;;;;;;5087375;28;20187;-82
2023/01/13 06:22:48;;;;;;;17.98;4.90;;;9.20;99.90;;;;;;5095532;28;20208;-81
2023/01/13 06:25:26;;;;;;;24.45;4.97;;;9.20;99.90;;;;;;5095593;28;20233;-80
2023/01/13 06:27:54;;;;;;;19.90;5.97;;;9.20;99.90;;;;;;5091518;28;20201;-81
2023/01/13 06:30:21;;;;;;;25.42;4.78;;;9.20;99.90;;;;;;5094343;28;20229;-81
2023/01/13 06:32:53;;;;;;;28.83;5.25;;;9.20;99.90;;;;;;5092745;28;20285;-80
2023/01/13 06:35:24;;;;;;;21.15;4.50;;;9.20;99.90;;;;;;5086652;28;20258;-80
2023/01/13 06:37:55;;;;;;;16.38;3.85;;;9.20;99.90;;;;;;5096085;28;20245;-79
2023/01/13 06:40:23;;;;;;;20.23;4.68;;;9.20;99.90;;;;;;5087210;28;20231;-81
2023/01/13 06:45:36;;;;;;;18.27;5.72;;;9.10;99.90;;;;;;5093944;28;20253;-80
2023/01/13 06:48:04;;;;;;;26.23;5.97;;;9.10;99.90;;;;;;5101852;28;20259;-80
2023/01/13 06:50:31;;;;;;;16.05;6.50;;;9.20;99.90;;;;;;5099818;28;20198;-80
2023/01/13 06:52:58;;;;;;;29.20;5.93;;;9.20;99.90;;;;;;5100485;28;20241;-81
2023/01/13 06:55:25;;;;;;;16.85;6.25;;;9.10;99.90;;;;;;5104085;28;20293;-82
2023/01/13 06:57:54;;;;;;;19.05;4.18;;;9.10;99.90;;;;;;5104181;28;20226;-81
2023/01/13 07:00:22;;;;;;;14.48;4.35;;;9.10;99.90;;;;;;5104353;28;20262;-83
2023/01/13 07:02:49;;;;;;;10.80;3.28;;;9.10;99.90;;;;;;5090249;28;20245;-83
2023/01/13 07:05:19;;;;;;;18.85;6.28;;;9.00;99.90;;;;;;5108960;28;20228;-85
2023/01/13 07:07:46;;;;;;;22.92;4.30;;;9.00;99.90;;;;;;5098857;28;20190;-80
2023/01/13 07:10:21;;;;;;;10.48;4.32;;;9.00;99.90;;;;;;5107039;28;20229;-82
2023/01/13 07:15:53;;;;;;;14.38;4.57;;;8.90;99.90;;;;;;5107702;28;20257;-83
2023/01/13 07:18:20;;;;;;;21.48;5.45;;;8.90;99.90;;;;;;5105922;28;20274;-84
2023/01/13 07:20:56;;;;;;;12.93;4.13;;;8.90;99.90;;;;;;5105388;28;20186;-84
2023/01/13 07:23:23;;;;;;;20.40;4.70;;;8.80;99.90;;;;;;5090400;28;20207;-85
2023/01/13 07:25:50;;;;;;;10.43;3.70;;;8.80;99.90;;;;;;5091951;28;20257;-84
2023/01/13 07:28:18;;;;;;;19.58;4.03;;;8.80;99.90;;;;;;5088376;28;20210;-78
2023/01/13 07:30:45;;;;;;;12.57;4.18;;;8.70;99.90;;;;;;5088702;28;20207;-80
2023/01/13 07:33:12;;;;;;;13.63;5.05;;;8.70;99.90;;;;;;5102084;28;20293;-81
2023/01/13 07:35:39;;;;;;;14.48;4.20;;;8.70;99.90;;;;;;5103267;28;20257;-82
2023/01/13 07:38:08;;;;;;;13.52;4.40;;;8.70;99.90;;;;;;5090560;28;20225;-83
2023/01/13 07:40:34;;;;;;;17.00;5.00;;;8.70;99.90;;;;;;5098830;28;20206;-82
2023/01/13 07:45:46;;;;;;;18.80;3.88;;;8.70;99.90;;;;;;5091844;28;20233;-82
2023/01/13 07:48:13;;;;;;;18.60;5.05;;;8.60;99.90;;;;;;5100689;28;20206;-83
2023/01/13 07:50:39;;;;;;;29.42;4.30;;;8.60;99.90;;;;;;5098289;28;20221;-82
2023/01/13 07:53:09;;;;;;;14.32;4.00;;;8.60;99.90;;;;;;5101524;28;20209;-83
2023/01/13 07:55:41;;;;;;;9.02;3.95;;;8.70;99.90;;;;;;5102158;28;20287;-82
2023/01/13 07:58:08;;;;;;;9.07;3.63;;;8.70;99.90;;;;;;5105379;28;20227;-82
2023/01/13 08:00:35;;;;;;;15.43;4.57;;;8.70;99.90;;;;;;5104373;28;20206;-81
2023/01/13 08:03:02;;;;;;;15.68;5.13;;;8.70;99.90;;;;;;5107584;28;20201;-82
2023/01/13 08:05:29;;;;;;;23.05;5.18;;;8.80;99.90;;;;;;5100373;28;20241;-82
2023/01/13 08:07:55;;;;;;;12.25;3.22;;;8.90;99.90;;;;;;5112320;28;20215;-79
2023/01/13 08:10:24;;;;;;;12.02;2.92;;;8.90;99.90;;;;;;5102313;28;20237;-83
2023/01/13 08:15:36;;;;;;;11.75;3.40;;;8.90;99.90;;;;;;5096800;28;20229;-80
2023/01/13 08:18:03;;;;;;;12.80;3.10;;;9.00;99.90;;;;;;5091660;28;20753;-80
2023/01/13 08:20:30;;;;;;;9.82;3.53;;;8.90;99.90;;;;;;5098460;28;20198;-80
2023/01/13 08:22:57;;;;;;;9.93;3.25;;;9.00;99.90;;;;;;5091566;28;20211;-81
2023/01/13 08:25:26;;;;;;;6.90;2.58;;;9.00;99.90;;;;;;5098710;28;20215;-83
2023/01/13 08:27:53;;;;;;;12.13;3.08;;;9.00;99.90;;;;;;5090233;28;20207;-84
2023/01/13 08:30:21;;;;;;;16.23;3.20;;;9.00;99.90;;;;;;5098324;28;20312;-83
2023/01/13 08:32:48;;;;;;;10.23;3.13;;;9.00;99.90;;;;;;5104713;28;20210;-85
2023/01/13 08:35:16;;;;;;;9.15;2.55;;;9.00;99.90;;;;;;5096492;28;20282;-83
2023/01/13 08:37:43;;;;;;;10.27;2.25;;;8.90;99.90;;;;;;5090438;28;20226;-84
2023/01/13 08:40:12;;;;;;;14.48;3.67;;;8.90;99.90;;;;;;5091219;28;20202;-83
2023/01/13 08:42:41;;;;;;;17.23;2.22;;;9.00;99.90;;;;;;5094153;28;20198;-83
2023/01/13 08:45:09;;;;;;;12.80;2.60;;;9.10;99.90;;;;;;5163611;22;20309;-76
2023/01/13 08:47:36;;;;;;;10.50;3.13;;;9.10;99.90;;;;;;5090465;28;20257;-75
2023/01/13 08:50:04;;;;;;;8.32;3.10;;;9.10;99.90;;;;;;5084016;28;20286;-75
2023/01/13 08:52:31;;;;;;;9.85;4.25;;;9.10;99.90;;;;;;5090846;28;20272;-75
2023/01/13 08:54:58;;;;;;;5.82;2.42;;;9.30;99.90;;;;;;5090159;28;20304;-77
2023/01/13 08:57:25;;;;;;;13.02;3.15;;;9.50;99.90;;;;;;5085129;28;20619;-75
2023/01/13 08:59:54;;;;;;;7.28;2.63;;;9.50;99.90;;;;;;5086491;28;20213;-75
2023/01/13 09:02:23;;;;;;;5.18;2.42;;;9.50;99.90;;;;;;5077864;28;20203;-75
2023/01/13 09:04:51;;;;;;;12.02;2.60;;;9.50;99.90;;;;;;5082041;28;20268;-76
2023/01/13 09:07:18;;;;;;;7.07;2.05;;;9.40;99.90;;;;;;5086764;28;20305;-75
2023/01/13 09:09:45;;;;;;;14.02;2.63;;;9.40;99.90;;;;;;5084630;28;20234;-75
2023/01/13 09:15:00;;;;;;;7.55;3.08;;;9.40;99.90;;;;;;5084774;28;20620;-76
2023/01/13 09:17:27;;;;;;;9.13;1.67;;;9.30;99.90;;;;;;5078457;28;20590;-76
2023/01/13 09:19:54;;;;;;;15.15;3.70;;;9.30;99.90;;;;;;5082019;28;20235;-74
2023/01/13 09:22:21;;;;;;;3.65;2.05;;;9.40;99.90;;;;;;5091460;28;20208;-76
2023/01/13 09:24:48;;;;;;;10.55;2.78;;;9.30;99.90;;;;;;5093038;28;20197;-75
2023/01/13 09:27:15;;;;;;;8.75;3.30;;;9.40;99.90;;;;;;5086474;28;20229;-76
2023/01/13 09:29:42;;;;;;;7.38;2.97;;;9.40;99.90;;;;;;5092738;28;20210;-76
2023/01/13 09:32:13;;;;;;;6.97;2.22;;;9.30;99.90;;;;;;5091577;28;20259;-77
2023/01/13 09:37:24;;;;;;;10.27;2.80;;;9.40;99.90;;;;;;5081578;28;20224;-76
2023/01/13 09:39:51;;;;;;;12.52;4.00;;;9.40;99.90;;;;;;5087153;28;20223;-78
2023/01/13 09:45:15;;;;;;;12.38;2.90;;;9.40;99.90;;;;;;5091177;28;20217;-75
2023/01/13 09:47:51;;;;;;;5.65;2.58;;;9.40;99.90;;;;;;5076854;28;20249;-78
2023/01/13 09:50:29;;;;;;;8.75;3.22;;;9.40;99.90;;;;;;5082608;28;20591;-75
2023/01/13 09:52:59;;;;;;;17.20;4.25;;;9.40;99.90;;;;;;5082298;28;20293;-78
2023/01/13 09:55:35;;;;;;;7.82;2.90;;;9.40;99.90;;;;;;5085408;28;20198;-78
2023/01/13 09:58:09;;;;;;;10.90;3.90;;;9.40;99.90;;;;;;5089818;28;20205;-75
2023/01/13 10:00:43;;;;;;;11.90;3.85;;;9.40;99.90;;;;;;5082432;28;20563;-77
2023/01/13 10:03:23;;;;;;;13.70;3.22;;;9.50;99.90;;;;;;5069917;28;20648;-76
2023/01/13 10:05:58;;;;;;;8.05;2.58;;;9.50;99.90;;;;;;5062551;28;20232;-77
2023/01/13 10:08:28;;;;;;;12.65;3.92;;;9.50;99.90;;;;;;5091465;28;20293;-76
2023/01/13 10:10:57;;;;;;;7.20;2.95;;;9.50;99.90;;;;;;5074452;28;20291;-76
2023/01/13 10:13:25;;;;;;;9.48;2.95;;;9.60;99.90;;;;;;5088041;28;20223;-76
2023/01/13 10:15:59;;;;;;;14.23;3.35;;;9.70;99.90;;;;;;5088006;28;20220;-76
2023/01/13 10:18:38;;;;;;;9.07;2.78;;;9.60;99.90;;;;;;5071689;28;20243;-76
2023/01/13 10:21:19;;;;;;;12.93;2.88;;;9.70;99.90;;;;;;5070637;28;20217;-76
2023/01/13 10:24:02;;;;;;;11.30;3.42;;;9.60;99.90;;;;;;5066034;28;20210;-77
2023/01/13 10:26:43;;;;;;;13.77;2.95;;;9.60;99.90;;;;;;5070243;28;20214;-79
2023/01/13 10:29:24;;;;;;;13.20;3.80;;;9.60;99.90;;;;;;5081934;28;20203;-77
2023/01/13 10:31:52;;;;;;;15.02;5.60;;;9.40;99.90;;;;;;5088443;28;20212;-76
2023/01/13 10:34:21;;;;;;;9.93;3.40;;;9.30;99.90;;;;;;5077261;28;20191;-77
2023/01/13 10:36:59;;;;;;;12.52;3.97;;;9.20;99.90;;;;;;5090816;28;20221;-76
2023/01/13 10:39:26;;;;;;;13.02;4.30;;;8.90;99.90;;;;;;5080220;28;20644;-76
2023/01/13 10:42:04;;;;;;;15.18;4.57;;;8.70;99.90;;;;;;5082537;28;20230;-76
2023/01/13 10:44:31;;;;;;;7.95;3.25;;;8.50;99.90;;;;;;5080788;28;20270;-77
2023/01/13 10:46:59;;;;;;;10.68;3.42;;;8.40;99.90;;;;;;5080379;28;20317;-77
2023/01/13 10:49:32;;;;;;;15.30;5.13;;;8.30;99.90;;;;;;5092430;28;20194;-78
2023/01/13 10:52:00;;;;;;;11.43;3.78;;;8.30;99.90;;;;;;5092482;28;20202;-78
2023/01/13 10:54:29;;;;;;;11.73;4.05;;;8.30;99.90;;;;;;5090016;28;20202;-78
2023/01/13 10:57:13;;;;;;;13.93;5.40;;;8.30;99.90;;;;;;5088714;28;20226;-79
2023/01/13 10:59:40;;;;;;;14.90;5.10;;;8.50;99.90;;;;;;5078860;28;20252;-77
2023/01/13 11:02:19;;;;;;;13.55;3.53;;;8.50;99.90;;;;;;5089126;28;20233;-78
2023/01/13 11:05:10;;;;;;;8.20;3.25;;;8.60;99.90;;;;;;5086635;28;20709;-78
2023/01/13 11:07:39;;;;;;;8.02;2.70;;;8.60;99.90;;;;;;5085633;28;20317;-78
2023/01/13 11:10:30;;;;;;;14.80;4.53;;;8.70;99.90;;;;;;5086114;28;20669;-75
2023/01/13 11:13:07;;;;;;;11.88;4.45;;;8.90;99.90;;;;;;5090756;28;20210;-77
2023/01/13 11:15:43;;;;;;;15.15;3.15;;;8.90;99.90;;;;;;5086959;28;20506;-79
2023/01/13 11:18:17;;;;;;;10.27;3.80;;;9.00;99.90;;;;;;5075270;28;20205;-79
2023/01/13 11:20:48;;;;;;;13.02;4.75;;;9.00;99.90;;;;;;5088479;28;20574;-80
2023/01/13 11:23:24;;;;;;;12.65;3.47;;;9.10;99.90;;;;;;5082818;28;20207;-76
2023/01/13 11:25:56;;;;;;;17.52;3.08;;;9.10;99.90;;;;;;5088308;28;20250;-77
2023/01/13 11:28:38;;;;;;;8.23;4.55;;;9.20;99.90;;;;;;5079076;28;20340;-78
2023/01/13 11:31:15;;;;;;;12.13;3.22;;;9.10;99.90;;;;;;5087134;28;20279;-80
2023/01/13 11:33:46;;;;;;;8.65;2.92;;;9.20;99.90;;;;;;5072412;28;20316;-80
2023/01/13 11:36:20;;;;;;;7.43;2.85;;;9.10;99.90;;;;;;5088623;28;20976;-81
2023/01/13 11:38:50;;;;;;;6.55;3.10;;;9.10;99.90;;;;;;5083267;28;20227;-80
2023/01/13 11:41:35;;;;;;;11.63;4.07;;;9.00;99.90;;;;;;5085913;28;20195;-78
2023/01/13 11:44:12;;;;;;;14.85;3.55;;;9.20;99.90;;;;;;5093802;28;20203;-80
2023/01/13 11:46:41;;;;;;;14.60;3.30;;;9.20;99.90;;;;;;5088701;28;20264;-82
2023/01/13 11:49:16;;;;;;;9.65;3.42;;;9.20;99.90;;;;;;5102231;28;20198;-80
2023/01/13 11:51:52;;;;;;;8.85;2.65;;;9.20;99.90;;;;;;5103373;28;20284;-81
2023/01/13 11:54:44;;;;;;;9.45;2.72;;;9.20;99.90;;;;;;5075878;28;20645;-81
2023/01/13 11:57:26;;;;;;;16.40;3.33;;;9.20;99.90;;;;;;5096551;28;20217;-79
2023/01/13 12:00:08;;;;;;;9.63;2.13;;;9.20;99.90;;;;;;5089214;28;20636;-79
2023/01/13 12:02:50;;;;;;;7.30;3.33;;;9.20;99.90;;;;;;5090257;28;20290;-81
2023/01/13 12:05:23;;;;;;;16.55;3.50;;;9.20;99.90;;;;;;5094034;28;20251;-83
2023/01/13 12:07:59;;;;;;;13.63;2.95;;;9.30;99.90;;;;;;5066393;28;20261;-78
2023/01/13 12:10:42;;;;;;;6.65;1.85;;;9.20;99.90;;;;;;5089211;28;20282;-79
2023/01/13 12:13:21;;;;;;;10.27;2.58;;;9.20;99.90;;;;;;5091698;28;20282;-79
2023/01/13 12:16:03;;;;;;;10.35;4.85;;;9.10;99.90;;;;;;5088504;28;20249;-79
2023/01/13 12:18:59;;;;;;;9.27;3.10;;;9.00;99.90;;;;;;5089015;28;20205;-81
2023/01/13 12:21:28;;;;;;;12.77;3.33;;;9.00;99.90;;;;;;5091839;28;20226;-80
2023/01/13 12:24:05;;;;;;;11.15;2.45;;;8.90;99.90;;;;;;5083912;28;20242;-83
2023/01/13 12:26:37;;;;;;;12.68;3.88;;;8.90;99.90;;;;;;5087111;28;20305;-81
2023/01/13 12:29:12;;;;;;;6.70;2.90;;;8.90;99.90;;;;;;5087134;28;20644;-80
2023/01/13 12:31:40;;;;;;;13.95;2.90;;;9.00;99.90;;;;;;5093303;28;20244;-79
2023/01/13 12:34:21;;;;;;;10.93;2.65;;;9.00;99.90;;;;;;5078462;28;20202;-79
2023/01/13 12:36:57;;;;;;;10.93;2.58;;;9.00;99.90;;;;;;5087391;28;20225;-81
2023/01/13 12:39:41;;;;;;;10.10;2.67;;;9.00;99.90;;;;;;5090798;28;20292;-78
2023/01/13 12:45:22;;;;;;;11.45;2.72;;;9.10;99.90;;;;;;5063838;28;20249;-78
2023/01/13 12:47:49;;;;;;;7.72;2.55;;;9.20;99.90;;;;;;5089860;28;20222;-82
2023/01/13 12:50:36;;;;;;;7.57;2.47;;;9.20;99.90;;;;;;5094415;28;20194;-82
2023/01/13 12:53:32;;;;;;;18.05;4.68;;;9.10;99.90;;;;;;5092278;28;20238;-80
2023/01/13 12:56:45;;;;;;;12.27;2.80;;;9.10;99.90;;;;;;5077238;28;20276;-80
2023/01/13 12:59:48;;;;;;;12.40;2.15;;;9.10;99.90;;;;;;5047285;28;20301;-79
2023/01/13 13:02:32;;;;;;;9.63;2.10;;;9.20;99.90;;;;;;5090278;28;20212;-80
2023/01/13 13:05:16;;;;;;;6.10;3.00;;;9.10;99.90;;;;;;5094264;28;20285;-80
2023/01/13 13:07:47;;;;;;;6.05;3.20;;;9.20;99.90;;;;;;5088297;28;20226;-80
2023/01/13 13:10:19;;;;;;;9.45;2.75;;;9.20;99.90;;;;;;5086911;28;20198;-80
2023/01/13 13:15:41;;;;;;;7.95;2.90;;;9.20;99.90;;;;;;5087200;28;20213;-80
2023/01/13 13:18:26;;;;;;;8.65;1.88;;;9.30;99.90;;;;;;5092025;28;20722;-81
2023/01/13 13:21:03;;;;;;;8.98;2.25;;;9.20;99.90;;;;;;5089164;28;20232;-83
2023/01/13 13:23:46;;;;;;;6.30;2.58;;;9.30;99.90;;;;;;5091559;28;20198;-82
2023/01/13 13:26:20;;;;;;;13.00;3.17;;;9.20;99.90;;;;;;5082909;28;20329;-81
2023/01/13 13:28:58;;;;;;;8.35;2.95;;;9.30;99.90;;;;;;5084215;28;20195;-83
2023/01/13 13:31:41;;;;;;;11.80;3.42;;;9.20;99.90;;;;;;5092837;28;20194;-81
2023/01/13 13:34:18;;;;;;;11.20;4.35;;;9.30;99.90;;;;;;5090473;28;20198;-81
2023/01/13 13:36:58;;;;;;;7.68;1.60;;;9.30;99.90;;;;;;5089530;28;20583;-80
2023/01/13 13:48:01;;;;;;;8.75;2.50;;;9.30;99.90;;;;;;5088831;28;20207;-81
2023/01/13 13:50:33;;;;;;;16.20;2.40;;;9.30;99.90;;;;;;5089746;28;20200;-79
2023/01/13 13:53:04;;;;;;;11.05;3.30;;;9.20;99.90;;;;;;5081773;28;20211;-82
2023/01/13 13:55:32;;;;;;;9.15;2.63;;;9.20;99.90;;;;;;5076710;28;20578;-79
2023/01/13 13:58:01;;;;;;;10.75;3.35;;;9.10;99.90;;;;;;5079357;28;20199;-79
2023/01/13 14:00:32;;;;;;;7.40;2.97;;;9.10;99.90;;;;;;5086194;28;20226;-82
2023/01/13 14:03:01;;;;;;;13.63;2.90;;;9.10;99.90;;;;;;5075073;28;20282;-82
2023/01/13 14:05:30;;;;;;;8.98;3.00;;;9.20;99.90;;;;;;5087001;28;20652;-80
2023/01/13 14:08:01;;;;;;;10.82;2.70;;;9.20;99.90;;;;;;5088572;28;20265;-82
2023/01/13 14:10:34;;;;;;;10.38;2.28;;;9.30;99.90;;;;;;5085243;28;20293;-80
2023/01/13 14:13:02;;;;;;;11.23;2.13;;;9.30;99.90;;;;;;5090218;28;20316;-80